createdAt,value
2023-03-06T06:03:09.740Z,28.90
2023-03-06T06:04:10.210Z,28.13
2023-03-06T06:05:12.792Z,27.98
2023-03-06T06:06:10.232Z,28.00
2023-03-06T06:07:10.220Z,27.95
2023-03-06T06:08:10.217Z,27.89
2023-03-06T06:09:11.745Z,27.87
2023-03-06T06:10:10.203Z,27.84
2023-03-06T06:11:10.202Z,27.83
2023-03-06T06:12:10.190Z,27.77
2023-03-06T06:13:09.168Z,27.74
2023-03-06T06:14:10.179Z,27.84
2023-03-06T06:15:10.168Z,27.79
2023-03-06T06:16:10.202Z,27.78
2023-03-06T06:17:10.144Z,27.73
2023-03-06T06:18:10.140Z,27.70
2023-03-06T06:19:10.155Z,27.71
2023-03-06T06:20:10.128Z,27.69
2023-03-06T06:21:10.125Z,27.72
2023-03-06T06:22:09.121Z,27.72
2023-03-06T06:23:09.096Z,27.74
2023-03-06T06:24:10.095Z,27.73
2023-03-06T06:25:10.083Z,27.75
2023-03-06T06:26:10.101Z,27.71
2023-03-06T06:27:10.071Z,27.65
2023-03-06T06:28:10.068Z,27.70
2023-03-06T06:29:10.050Z,27.75
2023-03-06T06:30:10.053Z,27.69
2023-03-06T06:31:10.084Z,27.69
2023-03-06T06:32:10.071Z,27.70
2023-03-06T06:33:10.019Z,27.73
2023-03-06T06:34:10.044Z,27.76
2023-03-06T06:35:10.106Z,27.74
2023-03-06T06:36:10.111Z,27.64
2023-03-06T06:37:10.177Z,27.71
2023-03-06T06:38:10.219Z,27.63
2023-03-06T06:39:10.210Z,27.65
2023-03-06T06:40:10.243Z,27.71
2023-03-06T06:41:42.239Z,27.69
2023-03-06T06:42:29.295Z,27.65
2023-03-06T06:43:10.275Z,27.69
2023-03-06T06:44:10.255Z,27.68
2023-03-06T06:45:10.273Z,27.67
2023-03-06T06:46:44.653Z,27.63
2023-03-06T06:47:26.241Z,27.63
2023-03-06T06:48:10.295Z,27.68
2023-03-06T06:49:10.271Z,27.66
2023-03-06T06:50:10.224Z,27.69
2023-03-06T06:51:10.372Z,27.67
2023-03-06T06:52:10.195Z,27.61
2023-03-06T06:53:10.229Z,27.69
2023-03-06T06:54:10.179Z,27.66
2023-03-06T06:55:10.183Z,27.68
2023-03-06T06:56:10.181Z,27.73
2023-03-06T06:57:10.179Z,27.66
2023-03-06T06:58:10.165Z,27.62
2023-03-06T06:59:16.478Z,27.62
2023-03-06T07:00:10.158Z,27.65
2023-03-06T07:01:09.159Z,27.70
2023-03-06T07:02:10.205Z,27.65
2023-03-06T07:03:10.144Z,27.70
2023-03-06T07:04:10.177Z,27.94
2023-03-06T07:05:10.122Z,28.35
2023-03-06T07:06:10.109Z,28.49
2023-03-06T07:07:10.129Z,28.66
2023-03-06T07:08:10.084Z,29.05
2023-03-06T07:09:10.131Z,29.11
2023-03-06T07:10:10.072Z,29.46
2023-03-06T07:11:10.073Z,29.28
2023-03-06T07:12:10.065Z,29.47
2023-03-06T07:13:10.045Z,29.37
2023-03-06T07:14:10.053Z,29.52
2023-03-06T07:15:09.028Z,29.83
2023-03-06T07:16:10.074Z,29.91
2023-03-06T07:17:09.017Z,29.95
2023-03-06T07:18:10.011Z,30.01
2023-03-06T07:19:10.003Z,29.98
2023-03-06T07:20:09.985Z,30.29
2023-03-06T07:21:09.980Z,30.46
2023-03-06T07:22:09.973Z,30.43
2023-03-06T07:23:09.999Z,30.32
2023-03-06T07:24:09.974Z,30.30
2023-03-06T07:25:09.950Z,30.57
2023-03-06T07:26:09.952Z,30.55
2023-03-06T07:27:09.954Z,30.83
2023-03-06T07:28:10.239Z,30.88
2023-03-06T07:29:09.919Z,30.92
2023-03-06T07:30:09.930Z,30.90
2023-03-06T07:31:09.988Z,31.09
2023-03-06T07:32:09.918Z,31.13
2023-03-06T07:33:09.912Z,31.11
2023-03-06T07:34:09.893Z,31.05
2023-03-06T07:35:19.881Z,31.08
2023-03-06T07:36:11.343Z,30.97
2023-03-06T07:37:09.868Z,31.21
2023-03-06T07:38:09.861Z,31.29
2023-03-06T07:39:09.872Z,31.51
2023-03-06T07:40:09.844Z,31.54
2023-03-06T07:41:09.839Z,31.43
2023-03-06T07:42:09.826Z,31.58
2023-03-06T07:43:19.005Z,31.76
2023-03-06T07:44:09.825Z,31.87
2023-03-06T07:45:09.820Z,32.04
2023-03-06T07:46:09.826Z,32.15
2023-03-06T07:47:09.788Z,32.33
2023-03-06T07:48:09.806Z,32.59
2023-03-06T07:49:09.779Z,32.47
2023-03-06T07:50:09.784Z,32.34
2023-03-06T07:51:09.780Z,32.36
2023-03-06T07:52:09.776Z,32.53
2023-03-06T07:53:11.421Z,32.38
2023-03-06T07:54:09.751Z,32.42
2023-03-06T07:55:09.761Z,32.28
2023-03-06T07:56:09.741Z,32.33
2023-03-06T07:57:08.727Z,32.50
2023-03-06T07:59:09.725Z,32.71
2023-03-06T08:00:09.703Z,33.09
2023-03-06T08:01:09.703Z,33.08
2023-03-06T08:02:09.698Z,33.25
2023-03-06T08:04:09.754Z,33.35
2023-03-06T08:05:09.731Z,33.24
2023-03-06T08:06:09.660Z,33.47
2023-03-06T08:07:09.638Z,33.57
2023-03-06T08:08:08.660Z,33.53
2023-03-06T08:09:09.627Z,33.77
2023-03-06T08:10:08.618Z,33.63
2023-03-06T08:11:09.646Z,34.04
2023-03-06T08:12:09.596Z,33.93
2023-03-06T08:13:09.623Z,34.26
2023-03-06T08:14:09.606Z,34.19
2023-03-06T08:15:09.578Z,34.28
2023-03-06T08:16:09.612Z,34.10
2023-03-06T08:17:09.576Z,34.13
2023-03-06T08:18:09.560Z,34.07
2023-03-06T08:19:09.571Z,33.89
2023-03-06T08:20:09.538Z,33.96
2023-03-06T08:21:09.539Z,34.14
2023-03-06T08:22:08.537Z,34.18
2023-03-06T08:23:09.597Z,34.15
2023-03-06T08:24:09.662Z,34.17
2023-03-06T08:26:09.765Z,34.15
2023-03-06T08:27:09.872Z,34.12
2023-03-06T08:28:09.883Z,34.18
2023-03-06T08:29:09.935Z,34.30
2023-03-06T08:30:10.005Z,34.59
2023-03-06T08:31:10.125Z,34.81
2023-03-06T08:32:10.095Z,34.79
2023-03-06T08:33:10.129Z,35.03
2023-03-06T08:34:10.165Z,35.07
2023-03-06T08:35:09.241Z,35.10
2023-03-06T08:36:09.253Z,35.12
2023-03-06T08:37:10.297Z,35.10
2023-03-06T08:40:09.310Z,35.54
2023-03-06T08:41:10.380Z,35.53
2023-03-06T08:42:10.409Z,35.74
2023-03-06T08:43:12.916Z,35.70
2023-03-06T08:44:10.441Z,35.74
2023-03-06T08:45:10.440Z,35.72
2023-03-06T08:46:09.435Z,35.61
2023-03-06T08:47:10.449Z,35.55
2023-03-06T08:48:11.197Z,35.57
2023-03-06T08:50:10.400Z,35.41
2023-03-06T08:51:09.404Z,35.60
2023-03-06T08:52:09.405Z,35.51
2023-03-06T08:53:10.391Z,35.39
2023-03-06T08:54:10.390Z,35.46
2023-03-06T08:56:09.365Z,35.50
2023-03-06T08:57:09.362Z,35.35
2023-03-06T08:58:10.350Z,35.36
2023-03-06T08:59:09.453Z,35.34
2023-03-06T09:00:10.599Z,35.34
2023-03-06T09:01:10.454Z,35.22
2023-03-06T09:03:10.520Z,35.03
2023-03-06T09:04:10.538Z,34.97
2023-03-06T09:05:10.543Z,35.02
2023-03-06T09:06:10.565Z,34.95
2023-03-06T09:07:10.572Z,34.86
2023-03-06T09:08:10.606Z,34.80
2023-03-06T09:09:09.602Z,34.74
2023-03-06T09:10:10.614Z,34.79
2023-03-06T09:11:10.635Z,34.69
2023-03-06T09:12:10.652Z,34.68
2023-03-06T09:13:10.672Z,34.59
2023-03-06T09:14:10.640Z,34.50
2023-03-06T09:15:09.660Z,34.51
2023-03-06T09:16:10.681Z,34.48
2023-03-06T09:17:10.710Z,34.39
2023-03-06T09:18:09.670Z,34.36
2023-03-06T09:19:10.644Z,34.36
2023-03-06T09:20:10.714Z,34.29
2023-03-06T09:21:09.648Z,34.29
2023-03-06T09:22:09.655Z,34.20
2023-03-06T09:23:10.671Z,34.14
2023-03-06T09:24:10.660Z,34.14
2023-03-06T09:25:10.650Z,34.05
2023-03-06T09:26:10.641Z,34.09
2023-03-06T09:27:10.639Z,34.06
2023-03-06T09:28:12.106Z,34.00
2023-03-06T09:29:10.882Z,34.00
2023-03-06T09:30:10.851Z,33.96
2023-03-06T09:31:10.993Z,33.92
2023-03-06T09:32:12.071Z,33.89
2023-03-06T09:33:09.836Z,33.84
2023-03-06T09:34:10.841Z,33.87
2023-03-06T09:35:10.860Z,33.81
2023-03-06T09:36:10.832Z,33.74
2023-03-06T09:37:09.847Z,33.77
2023-03-06T09:38:10.847Z,33.70
2023-03-06T09:39:10.838Z,33.69
2023-03-06T09:40:10.842Z,33.67
2023-03-06T09:41:10.845Z,33.64
2023-03-06T09:42:10.865Z,33.59
2023-03-06T09:43:10.861Z,33.61
2023-03-06T09:44:11.227Z,33.51
2023-03-06T09:46:10.897Z,33.47
2023-03-06T09:47:11.056Z,33.45
2023-03-06T09:48:10.858Z,33.42
2023-03-06T09:49:10.853Z,33.40
2023-03-06T09:50:10.848Z,33.36
2023-03-06T09:51:10.864Z,33.37
2023-03-06T09:52:10.852Z,33.32
2023-03-06T09:53:10.875Z,33.30
2023-03-06T09:54:10.897Z,33.27
2023-03-06T09:55:10.872Z,33.26
2023-03-06T09:56:09.864Z,33.20
2023-03-06T09:57:10.857Z,33.18
2023-03-06T09:58:10.871Z,33.15
2023-03-06T09:59:11.210Z,33.12
2023-03-06T10:00:10.879Z,33.10
2023-03-06T10:01:10.879Z,33.09
2023-03-06T10:02:11.013Z,33.04
2023-03-06T10:03:10.050Z,33.04
2023-03-06T10:04:09.897Z,33.00
2023-03-06T10:05:09.954Z,32.97
2023-03-06T10:06:10.904Z,32.92
2023-03-06T10:07:10.895Z,32.91
2023-03-06T10:08:09.887Z,32.90
2023-03-06T10:09:09.945Z,32.88
2023-03-06T10:10:10.030Z,32.88
2023-03-06T10:11:09.943Z,32.84
2023-03-06T10:12:10.901Z,32.81
2023-03-06T10:13:10.918Z,32.77
2023-03-06T10:14:10.908Z,32.77
2023-03-06T10:15:10.916Z,32.75
2023-03-06T10:16:10.967Z,32.72
2023-03-06T10:17:10.918Z,32.72
2023-03-06T10:18:09.931Z,32.71
2023-03-06T10:19:09.976Z,32.67
2023-03-06T10:20:09.930Z,32.65
2023-03-06T10:21:19.065Z,32.60
2023-03-06T10:22:10.941Z,32.59
2023-03-06T10:23:11.137Z,32.58
2023-03-06T10:24:10.919Z,32.55
2023-03-06T10:25:10.963Z,32.53
2023-03-06T10:26:10.972Z,32.51
2023-03-06T10:27:10.963Z,32.47
2023-03-06T10:28:10.892Z,32.46
2023-03-06T10:29:10.900Z,32.45
2023-03-06T10:30:09.876Z,32.43
2023-03-06T10:31:10.580Z,32.42
2023-03-06T10:32:09.911Z,32.40
2023-03-06T10:35:10.918Z,32.35
2023-03-06T10:36:10.855Z,32.33
2023-03-06T10:37:10.832Z,32.31
2023-03-06T10:38:09.839Z,32.30
2023-03-06T10:39:10.809Z,32.28
2023-03-06T10:40:10.841Z,32.26
2023-03-06T10:41:10.801Z,32.25
2023-03-06T10:43:12.190Z,32.21
2023-03-06T10:44:10.921Z,32.24
2023-03-06T10:45:10.930Z,32.18
2023-03-06T10:46:10.969Z,32.18
2023-03-06T10:47:10.926Z,32.17
2023-03-06T10:48:10.940Z,32.13
2023-03-06T10:49:11.246Z,32.12
2023-03-06T10:50:10.957Z,32.10
2023-03-06T10:51:18.021Z,32.09
2023-03-06T10:52:10.955Z,32.07
2023-03-06T10:53:09.932Z,32.07
2023-03-06T10:54:11.236Z,32.07
2023-03-06T10:55:11.789Z,32.01
2023-03-06T10:56:11.158Z,32.01
2023-03-06T10:57:11.202Z,32.02
2023-03-06T10:58:10.175Z,31.98
2023-03-06T10:59:11.173Z,31.98
2023-03-06T11:00:10.176Z,31.96
2023-03-06T11:01:11.207Z,31.95
2023-03-06T11:02:11.179Z,31.94
2023-03-06T11:03:11.190Z,31.92
2023-03-06T11:04:11.217Z,31.90
2023-03-06T11:05:10.214Z,31.89
2023-03-06T11:06:12.916Z,31.85
2023-03-06T11:07:11.308Z,31.86
2023-03-06T11:08:11.191Z,31.84
2023-03-06T11:09:11.195Z,31.81
2023-03-06T11:10:11.183Z,31.82
2023-03-06T11:11:11.166Z,31.81
2023-03-06T11:12:11.161Z,31.78
2023-03-06T11:13:11.171Z,31.76
2023-03-06T11:14:11.140Z,31.74
2023-03-06T11:15:11.147Z,31.72
2023-03-06T11:16:10.177Z,31.70
2023-03-06T11:17:11.119Z,31.68
2023-03-06T11:18:11.141Z,31.69
2023-03-06T11:19:11.118Z,31.69
2023-03-06T11:20:11.099Z,31.69
2023-03-06T11:21:10.080Z,31.68
2023-03-06T11:22:11.132Z,31.66
2023-03-06T11:23:11.209Z,31.65
2023-03-06T11:24:11.071Z,31.64
2023-03-06T11:25:11.069Z,31.63
2023-03-06T11:26:11.036Z,31.63
2023-03-06T11:27:11.034Z,31.62
2023-03-06T11:28:10.027Z,31.58
2023-03-06T11:29:11.081Z,31.57
2023-03-06T11:30:11.017Z,31.57
2023-03-06T11:31:11.021Z,31.52
2023-03-06T11:32:11.091Z,31.54
2023-03-06T11:33:11.003Z,31.51
2023-03-06T11:34:10.010Z,31.51
2023-03-06T11:35:09.981Z,31.49
2023-03-06T11:36:10.964Z,31.48
2023-03-06T11:37:10.955Z,31.47
2023-03-06T11:38:10.961Z,31.46
2023-03-06T11:39:10.020Z,31.45
2023-03-06T11:40:10.947Z,31.44
2023-03-06T11:41:10.936Z,31.41
2023-03-06T11:42:10.940Z,31.38
2023-03-06T11:43:10.927Z,31.38
2023-03-06T11:44:10.915Z,31.39
2023-03-06T11:45:10.896Z,31.37
2023-03-06T11:46:10.900Z,31.35
2023-03-06T11:47:10.897Z,31.35
2023-03-06T11:48:10.879Z,31.36
2023-03-06T11:49:10.886Z,31.32
2023-03-06T11:50:10.864Z,31.28
2023-03-06T11:51:10.866Z,31.27
2023-03-06T11:52:10.850Z,31.25
2023-03-06T11:53:10.851Z,31.26
2023-03-06T11:54:10.851Z,31.21
2023-03-06T11:55:10.860Z,31.22
2023-03-06T11:56:10.843Z,31.17
2023-03-06T11:57:10.814Z,31.21
2023-03-06T11:58:10.811Z,31.19
2023-03-06T12:00:10.804Z,31.18
2023-03-06T12:01:10.793Z,31.19
2023-03-06T12:02:10.828Z,31.15
2023-03-06T12:03:10.777Z,31.15
2023-03-06T12:04:10.807Z,31.15
2023-03-06T12:05:10.873Z,31.12
2023-03-06T12:06:10.785Z,31.10
2023-03-06T12:07:10.747Z,31.07
2023-03-06T12:08:10.751Z,31.09
2023-03-06T12:09:10.760Z,31.05
2023-03-06T12:11:10.756Z,31.03
2023-03-06T12:12:10.747Z,31.01
2023-03-06T12:13:10.705Z,31.01
2023-03-06T12:14:10.722Z,30.99
2023-03-06T12:15:10.701Z,30.98
2023-03-06T12:16:10.717Z,30.98
2023-03-06T12:18:10.684Z,30.96
2023-03-06T12:19:10.684Z,30.96
2023-03-06T12:20:10.671Z,30.94
2023-03-06T12:21:10.663Z,30.90
2023-03-06T12:22:10.642Z,30.91
2023-03-06T12:23:15.337Z,30.89
2023-03-06T12:24:10.657Z,30.89
2023-03-06T12:25:10.657Z,30.85
2023-03-06T12:26:10.620Z,30.85
2023-03-06T12:27:10.650Z,30.82
2023-03-06T12:28:10.614Z,30.82
2023-03-06T12:30:10.602Z,30.80
2023-03-06T12:31:10.593Z,30.81
2023-03-06T12:32:10.707Z,30.81
2023-03-06T12:33:10.573Z,30.76
2023-03-06T12:34:10.556Z,30.77
2023-03-06T12:35:10.567Z,30.78
2023-03-06T12:36:09.541Z,30.75
2023-03-06T12:37:10.556Z,30.72
2023-03-06T12:38:10.528Z,30.71
2023-03-06T12:39:10.548Z,30.73
2023-03-06T12:40:10.534Z,30.73
2023-03-06T12:41:09.506Z,30.69
2023-03-06T12:42:17.882Z,30.68
2023-03-06T12:43:10.526Z,30.69
2023-03-06T12:44:10.482Z,30.67
2023-03-06T12:45:10.481Z,30.67
2023-03-06T12:46:09.574Z,30.62
2023-03-06T12:47:10.468Z,30.61
2023-03-06T12:48:10.471Z,30.56
2023-03-06T12:50:10.450Z,30.54
2023-03-06T12:51:10.448Z,30.56
2023-03-06T12:52:11.014Z,30.56
2023-03-06T12:53:10.437Z,30.53
2023-03-06T12:54:10.422Z,30.55
2023-03-06T12:55:10.407Z,30.54
2023-03-06T12:56:09.414Z,30.53
2023-03-06T12:57:10.432Z,30.51
2023-03-06T12:58:10.380Z,30.50
2023-03-06T12:59:10.405Z,30.49
2023-03-06T13:00:09.385Z,30.50
2023-03-06T13:01:10.429Z,30.48
2023-03-06T13:02:10.426Z,30.46
2023-03-06T13:03:10.350Z,30.46
2023-03-06T13:04:10.333Z,30.48
2023-03-06T13:05:10.330Z,30.48
2023-03-06T13:06:10.337Z,30.49
2023-03-06T13:07:10.715Z,30.49
2023-03-06T13:10:10.346Z,30.46
2023-03-06T13:11:10.290Z,30.44
2023-03-06T13:13:10.273Z,30.41
2023-03-06T13:15:10.285Z,30.42
2023-03-06T13:16:09.242Z,30.42
2023-03-06T13:17:09.241Z,30.44
2023-03-06T13:18:10.234Z,30.39
2023-03-06T13:19:10.238Z,30.39
2023-03-06T13:20:10.223Z,30.40
2023-03-06T13:21:10.218Z,30.39
2023-03-06T13:22:10.223Z,30.40
2023-03-06T13:23:10.208Z,30.37
2023-03-06T13:25:10.194Z,30.39
2023-03-06T13:26:10.181Z,30.39
2023-03-06T13:27:10.179Z,30.35
2023-03-06T13:28:10.158Z,30.38
2023-03-06T13:29:10.159Z,30.39
2023-03-06T13:30:09.152Z,30.46
2023-03-06T13:31:21.350Z,30.49
2023-03-06T13:32:10.154Z,30.52
2023-03-06T13:33:10.117Z,30.50
2023-03-06T13:34:10.114Z,30.48
2023-03-06T13:35:10.127Z,30.51
2023-03-06T13:36:10.139Z,30.50
2023-03-06T13:37:09.090Z,30.46
2023-03-06T13:38:10.089Z,30.33
2023-03-06T13:39:10.075Z,30.23
2023-03-06T13:40:10.073Z,29.97
2023-03-06T13:41:10.057Z,29.79
2023-03-06T13:42:10.056Z,29.49
2023-03-06T13:43:09.042Z,29.31
2023-03-06T13:44:10.045Z,29.19
2023-03-06T13:45:10.036Z,29.46
2023-03-06T13:46:10.130Z,29.30
2023-03-06T13:47:10.117Z,29.23
2023-03-06T13:48:37.164Z,29.16
2023-03-06T13:49:09.994Z,29.27
2023-03-06T13:50:09.988Z,29.27
2023-03-06T13:51:10.007Z,29.35
2023-03-06T13:52:09.976Z,29.32
2023-03-06T13:53:09.974Z,29.31
2023-03-06T13:54:10.059Z,29.29
2023-03-06T13:55:09.949Z,29.32
2023-03-06T13:56:09.946Z,29.30
2023-03-06T13:57:09.950Z,29.30
2023-03-06T13:59:08.917Z,29.32
2023-03-06T14:00:09.926Z,29.31
2023-03-06T14:01:09.959Z,29.40
2023-03-06T14:02:09.916Z,29.32
2023-03-06T14:03:09.968Z,29.31
2023-03-06T14:04:08.890Z,29.30
2023-03-06T14:05:09.897Z,29.36
2023-03-06T14:06:09.868Z,29.35
2023-03-06T14:07:09.865Z,29.37
2023-03-06T14:08:09.867Z,29.35
2023-03-06T14:10:09.846Z,29.38
2023-03-06T14:12:09.020Z,29.44
2023-03-06T14:13:09.812Z,29.41
2023-03-06T14:15:09.909Z,29.43
2023-03-06T14:17:09.782Z,29.46
2023-03-06T14:20:09.815Z,29.45
2023-03-06T14:21:09.762Z,29.47
2023-03-06T14:24:09.733Z,29.46
2023-03-06T14:25:09.722Z,29.46
2023-03-06T14:27:09.713Z,29.47
2023-03-06T14:28:14.247Z,29.51
2023-03-06T14:29:09.908Z,29.49
2023-03-06T14:30:10.004Z,29.50
2023-03-06T14:31:09.952Z,29.50
2023-03-06T14:32:09.947Z,29.49
2023-03-06T14:33:08.910Z,29.50
2023-03-06T14:34:09.925Z,29.49
2023-03-06T14:35:09.959Z,29.49
2023-03-06T14:36:09.937Z,29.53
2023-03-06T14:37:09.943Z,29.53
2023-03-06T14:38:09.953Z,29.52
2023-03-06T14:39:09.952Z,29.51
2023-03-06T14:40:09.979Z,29.47
2023-03-06T14:41:11.374Z,29.21
2023-03-06T14:42:09.943Z,29.04
2023-03-06T14:43:09.948Z,28.93
2023-03-06T14:44:09.935Z,29.04
2023-03-06T14:45:08.921Z,28.74
2023-03-06T14:46:10.007Z,28.58
2023-03-06T14:47:08.909Z,28.45
2023-03-06T14:48:09.913Z,28.33
2023-03-06T14:49:09.904Z,28.19
2023-03-06T14:50:09.030Z,28.05
2023-03-06T14:51:08.917Z,27.81
2023-03-06T14:52:08.881Z,27.79
2023-03-06T14:53:09.879Z,27.56
2023-03-06T14:54:09.889Z,27.45
2023-03-06T14:55:09.874Z,27.39
2023-03-06T14:56:09.875Z,27.26
2023-03-06T14:58:09.838Z,27.00
2023-03-06T15:00:08.829Z,26.92
2023-03-06T15:01:09.821Z,26.89
2023-03-06T15:02:09.821Z,26.90
2023-03-06T15:04:08.792Z,26.62
2023-03-06T15:06:09.790Z,26.48
2023-03-06T15:08:09.769Z,26.41
2023-03-06T15:34:09.601Z,26.95
2023-03-06T15:36:08.556Z,27.20
2023-03-06T15:51:09.685Z,27.46
2023-03-06T16:15:09.873Z,27.76
2023-03-06T16:16:09.885Z,27.75
2023-03-06T16:17:09.956Z,27.74
2023-03-06T16:18:09.910Z,27.74
2023-03-06T16:19:14.009Z,27.74
2023-03-06T16:20:09.917Z,27.82
2023-03-06T16:21:09.914Z,27.82
2023-03-06T16:23:09.888Z,27.82
2023-03-06T16:24:09.879Z,27.83
2023-03-06T16:25:09.873Z,27.88
2023-03-06T16:26:09.876Z,27.87
2023-03-06T16:27:09.892Z,27.89
2023-03-06T16:29:08.851Z,27.85
